sensor_id;sensor_type;location;lat;lon;timestamp;P1;durP1;ratioP1;P2;durP2;ratioP2
79005;SDS011;69202;45.498;-73.582;2023-12-07T00:01:09;5.68;;;3.97;;
79005;SDS011;69202;45.498;-73.582;2023-12-07T00:03:35;5.05;;;3.63;;
79005;SDS011;69202;45.498;-73.582;2023-12-07T00:06:03;5.25;;;3.50;;
79005;SDS011;69202;45.498;-73.582;2023-12-07T00:08:29;5.82;;;3.63;;
79005;SDS011;69202;45.498;-73.582;2023-12-07T00:10:55;4.88;;;3.33;;
79005;SDS011;69202;45.498;-73.582;2023-12-07T00:13:20;4.55;;;3.15;;
79005;SDS011;69202;45.498;-73.582;2023-12-07T00:15:48;5.40;;;3.50;;
79005;SDS011;69202;45.498;-73.582;2023-12-07T00:18:15;5.57;;;3.70;;
79005;SDS011;69202;45.498;-73.582;2023-12-07T00:20:42;4.18;;;3.15;;
79005;SDS011;69202;45.498;-73.582;2023-12-07T00:23:08;4.30;;;3.40;;
79005;SDS011;69202;45.498;-73.582;2023-12-07T00:25:34;4.22;;;3.05;;
79005;SDS011;69202;45.498;-73.582;2023-12-07T00:28:00;5.13;;;3.30;;
79005;SDS011;69202;45.498;-73.582;2023-12-07T00:30:25;4.22;;;3.20;;
79005;SDS011;69202;45.498;-73.582;2023-12-07T00:32:51;5.22;;;3.45;;
79005;SDS011;69202;45.498;-73.582;2023-12-07T00:35:18;5.32;;;3.78;;
79005;SDS011;69202;45.498;-73.582;2023-12-07T00:37:47;4.63;;;3.33;;
79005;SDS011;69202;45.498;-73.582;2023-12-07T00:40:13;4.03;;;2.90;;
79005;SDS011;69202;45.498;-73.582;2023-12-07T00:42:39;5.55;;;3.65;;
79005;SDS011;69202;45.498;-73.582;2023-12-07T00:45:05;4.78;;;3.65;;
79005;SDS011;69202;45.498;-73.582;2023-12-07T00:47:32;8.38;;;3.65;;
79005;SDS011;69202;45.498;-73.582;2023-12-07T00:49:58;8.05;;;3.45;;
79005;SDS011;69202;45.498;-73.582;2023-12-07T00:52:23;7.22;;;4.10;;
79005;SDS011;69202;45.498;-73.582;2023-12-07T00:54:49;5.22;;;3.80;;
79005;SDS011;69202;45.498;-73.582;2023-12-07T00:57:15;6.13;;;3.85;;
79005;SDS011;69202;45.498;-73.582;2023-12-07T00:59:42;7.10;;;2.97;;
79005;SDS011;69202;45.498;-73.582;2023-12-07T01:02:10;5.13;;;3.13;;
79005;SDS011;69202;45.498;-73.582;2023-12-07T01:04:38;5.65;;;3.42;;
79005;SDS011;69202;45.498;-73.582;2023-12-07T01:07:06;4.20;;;2.85;;
79005;SDS011;69202;45.498;-73.582;2023-12-07T01:09:33;4.57;;;3.00;;
79005;SDS011;69202;45.498;-73.582;2023-12-07T01:11:58;6.43;;;3.25;;
79005;SDS011;69202;45.498;-73.582;2023-12-07T01:14:24;5.05;;;3.40;;
79005;SDS011;69202;45.498;-73.582;2023-12-07T01:16:50;5.10;;;3.25;;
79005;SDS011;69202;45.498;-73.582;2023-12-07T01:19:16;4.50;;;2.72;;
79005;SDS011;69202;45.498;-73.582;2023-12-07T01:21:42;5.97;;;3.20;;
79005;SDS011;69202;45.498;-73.582;2023-12-07T01:24:08;4.28;;;2.72;;
79005;SDS011;69202;45.498;-73.582;2023-12-07T01:26:34;4.68;;;2.42;;
79005;SDS011;69202;45.498;-73.582;2023-12-07T01:29:00;3.88;;;2.70;;
79005;SDS011;69202;45.498;-73.582;2023-12-07T01:31:26;4.32;;;2.78;;
79005;SDS011;69202;45.498;-73.582;2023-12-07T01:33:52;3.35;;;2.55;;
79005;SDS011;69202;45.498;-73.582;2023-12-07T01:36:18;4.13;;;2.90;;
79005;SDS011;69202;45.498;-73.582;2023-12-07T01:38:45;4.85;;;3.13;;
79005;SDS011;69202;45.498;-73.582;2023-12-07T01:41:12;3.75;;;3.05;;
79005;SDS011;69202;45.498;-73.582;2023-12-07T01:43:45;4.43;;;3.17;;
79005;SDS011;69202;45.498;-73.582;2023-12-07T01:46:11;3.75;;;2.80;;
79005;SDS011;69202;45.498;-73.582;2023-12-07T01:48:38;4.68;;;2.50;;
79005;SDS011;69202;45.498;-73.582;2023-12-07T01:51:04;4.88;;;2.92;;
79005;SDS011;69202;45.498;-73.582;2023-12-07T01:53:31;4.97;;;3.40;;
79005;SDS011;69202;45.498;-73.582;2023-12-07T01:55:58;5.55;;;3.35;;
79005;SDS011;69202;45.498;-73.582;2023-12-07T01:58:24;3.65;;;2.83;;
79005;SDS011;69202;45.498;-73.582;2023-12-07T02:00:50;5.82;;;2.67;;
79005;SDS011;69202;45.498;-73.582;2023-12-07T02:03:16;4.10;;;2.60;;
79005;SDS011;69202;45.498;-73.582;2023-12-07T02:05:43;5.25;;;2.72;;
79005;SDS011;69202;45.498;-73.582;2023-12-07T02:08:12;3.55;;;2.63;;
79005;SDS011;69202;45.498;-73.582;2023-12-07T02:10:39;3.95;;;2.58;;
79005;SDS011;69202;45.498;-73.582;2023-12-07T02:13:05;6.10;;;2.80;;
79005;SDS011;69202;45.498;-73.582;2023-12-07T02:15:32;5.35;;;2.67;;
79005;SDS011;69202;45.498;-73.582;2023-12-07T02:18:14;3.35;;;2.30;;
79005;SDS011;69202;45.498;-73.582;2023-12-07T02:23:49;4.30;;;2.45;;
79005;SDS011;69202;45.498;-73.582;2023-12-07T02:26:19;5.18;;;2.85;;
79005;SDS011;69202;45.498;-73.582;2023-12-07T02:28:47;4.05;;;2.65;;
79005;SDS011;69202;45.498;-73.582;2023-12-07T02:31:14;2.80;;;2.10;;
79005;SDS011;69202;45.498;-73.582;2023-12-07T02:33:39;4.82;;;2.70;;
79005;SDS011;69202;45.498;-73.582;2023-12-07T02:36:07;4.15;;;3.05;;
79005;SDS011;69202;45.498;-73.582;2023-12-07T02:38:33;2.90;;;2.17;;
79005;SDS011;69202;45.498;-73.582;2023-12-07T02:41:01;3.85;;;2.67;;
79005;SDS011;69202;45.498;-73.582;2023-12-07T02:43:28;4.63;;;2.80;;
79005;SDS011;69202;45.498;-73.582;2023-12-07T02:45:54;3.95;;;3.15;;
79005;SDS011;69202;45.498;-73.582;2023-12-07T02:48:20;4.25;;;3.22;;
79005;SDS011;69202;45.498;-73.582;2023-12-07T02:50:46;3.92;;;2.90;;
79005;SDS011;69202;45.498;-73.582;2023-12-07T02:53:12;4.40;;;3.22;;
79005;SDS011;69202;45.498;-73.582;2023-12-07T02:55:38;3.10;;;2.70;;
79005;SDS011;69202;45.498;-73.582;2023-12-07T02:58:04;4.18;;;2.65;;
79005;SDS011;69202;45.498;-73.582;2023-12-07T03:00:31;4.15;;;2.70;;
79005;SDS011;69202;45.498;-73.582;2023-12-07T03:02:57;4.75;;;2.78;;
79005;SDS011;69202;45.498;-73.582;2023-12-07T03:05:23;4.47;;;2.97;;
79005;SDS011;69202;45.498;-73.582;2023-12-07T03:07:49;3.95;;;2.38;;
79005;SDS011;69202;45.498;-73.582;2023-12-07T03:10:15;4.88;;;2.58;;
79005;SDS011;69202;45.498;-73.582;2023-12-07T03:12:41;4.20;;;2.83;;
79005;SDS011;69202;45.498;-73.582;2023-12-07T03:15:07;6.47;;;2.95;;
79005;SDS011;69202;45.498;-73.582;2023-12-07T03:17:34;4.05;;;2.78;;
79005;SDS011;69202;45.498;-73.582;2023-12-07T03:20:00;4.55;;;2.78;;
79005;SDS011;69202;45.498;-73.582;2023-12-07T03:22:26;3.17;;;2.22;;
79005;SDS011;69202;45.498;-73.582;2023-12-07T03:24:52;5.70;;;3.35;;
79005;SDS011;69202;45.498;-73.582;2023-12-07T03:27:18;6.13;;;3.92;;
79005;SDS011;69202;45.498;-73.582;2023-12-07T03:29:44;5.65;;;4.03;;
79005;SDS011;69202;45.498;-73.582;2023-12-07T03:32:10;5.07;;;3.90;;
79005;SDS011;69202;45.498;-73.582;2023-12-07T03:34:36;7.25;;;4.53;;
79005;SDS011;69202;45.498;-73.582;2023-12-07T03:37:02;5.63;;;4.03;;
79005;SDS011;69202;45.498;-73.582;2023-12-07T03:39:28;7.78;;;4.35;;
79005;SDS011;69202;45.498;-73.582;2023-12-07T03:41:56;6.95;;;4.40;;
79005;SDS011;69202;45.498;-73.582;2023-12-07T03:44:26;8.10;;;4.68;;
79005;SDS011;69202;45.498;-73.582;2023-12-07T03:46:52;6.55;;;4.10;;
79005;SDS011;69202;45.498;-73.582;2023-12-07T03:49:18;6.50;;;4.13;;
79005;SDS011;69202;45.498;-73.582;2023-12-07T03:51:46;4.68;;;3.63;;
79005;SDS011;69202;45.498;-73.582;2023-12-07T03:54:13;5.65;;;4.20;;
79005;SDS011;69202;45.498;-73.582;2023-12-07T03:56:40;4.78;;;3.45;;
79005;SDS011;69202;45.498;-73.582;2023-12-07T03:59:07;6.18;;;4.22;;
79005;SDS011;69202;45.498;-73.582;2023-12-07T04:01:33;5.60;;;4.03;;
79005;SDS011;69202;45.498;-73.582;2023-12-07T04:03:59;7.43;;;4.47;;
79005;SDS011;69202;45.498;-73.582;2023-12-07T04:06:26;6.90;;;4.00;;
79005;SDS011;69202;45.498;-73.582;2023-12-07T04:08:52;6.00;;;3.75;;
79005;SDS011;69202;45.498;-73.582;2023-12-07T04:11:18;5.97;;;3.60;;
79005;SDS011;69202;45.498;-73.582;2023-12-07T04:13:44;5.47;;;3.50;;
79005;SDS011;69202;45.498;-73.582;2023-12-07T04:16:10;5.90;;;3.45;;
79005;SDS011;69202;45.498;-73.582;2023-12-07T04:18:36;6.63;;;4.07;;
79005;SDS011;69202;45.498;-73.582;2023-12-07T04:21:02;5.22;;;3.38;;
79005;SDS011;69202;45.498;-73.582;2023-12-07T04:23:29;5.43;;;3.40;;
79005;SDS011;69202;45.498;-73.582;2023-12-07T04:25:55;4.50;;;2.83;;
79005;SDS011;69202;45.498;-73.582;2023-12-07T04:28:20;5.63;;;3.50;;
79005;SDS011;69202;45.498;-73.582;2023-12-07T04:30:46;6.25;;;3.70;;
79005;SDS011;69202;45.498;-73.582;2023-12-07T04:33:12;5.50;;;3.63;;
79005;SDS011;69202;45.498;-73.582;2023-12-07T04:35:38;6.05;;;3.60;;
79005;SDS011;69202;45.498;-73.582;2023-12-07T04:38:04;5.38;;;3.47;;
79005;SDS011;69202;45.498;-73.582;2023-12-07T04:40:31;8.07;;;4.00;;
79005;SDS011;69202;45.498;-73.582;2023-12-07T04:42:57;5.60;;;3.70;;
79005;SDS011;69202;45.498;-73.582;2023-12-07T04:45:23;4.88;;;3.22;;
79005;SDS011;69202;45.498;-73.582;2023-12-07T04:47:49;5.00;;;3.75;;
79005;SDS011;69202;45.498;-73.582;2023-12-07T04:50:15;5.90;;;3.97;;
79005;SDS011;69202;45.498;-73.582;2023-12-07T04:52:41;5.32;;;3.80;;
79005;SDS011;69202;45.498;-73.582;2023-12-07T04:55:08;5.93;;;4.10;;
79005;SDS011;69202;45.498;-73.582;2023-12-07T04:57:35;5.15;;;3.50;;
79005;SDS011;69202;45.498;-73.582;2023-12-07T05:00:02;6.15;;;3.97;;
79005;SDS011;69202;45.498;-73.582;2023-12-07T05:02:31;5.28;;;3.67;;
79005;SDS011;69202;45.498;-73.582;2023-12-07T05:04:58;5.57;;;3.83;;
79005;SDS011;69202;45.498;-73.582;2023-12-07T05:07:24;5.85;;;3.80;;
79005;SDS011;69202;45.498;-73.582;2023-12-07T05:09:49;5.05;;;3.67;;
79005;SDS011;69202;45.498;-73.582;2023-12-07T05:12:18;6.57;;;3.85;;
79005;SDS011;69202;45.498;-73.582;2023-12-07T05:14:46;5.50;;;3.90;;
79005;SDS011;69202;45.498;-73.582;2023-12-07T05:17:12;6.03;;;3.45;;
79005;SDS011;69202;45.498;-73.582;2023-12-07T05:19:40;6.22;;;3.75;;
79005;SDS011;69202;45.498;-73.582;2023-12-07T05:22:08;5.55;;;3.78;;
79005;SDS011;69202;45.498;-73.582;2023-12-07T05:24:34;5.97;;;4.07;;
79005;SDS011;69202;45.498;-73.582;2023-12-07T05:27:02;6.47;;;4.15;;
79005;SDS011;69202;45.498;-73.582;2023-12-07T05:29:29;4.28;;;3.28;;
79005;SDS011;69202;45.498;-73.582;2023-12-07T05:31:55;6.45;;;3.90;;
79005;SDS011;69202;45.498;-73.582;2023-12-07T05:34:22;5.45;;;4.10;;
79005;SDS011;69202;45.498;-73.582;2023-12-07T05:36:48;5.75;;;3.60;;
79005;SDS011;69202;45.498;-73.582;2023-12-07T05:39:14;4.63;;;3.30;;
79005;SDS011;69202;45.498;-73.582;2023-12-07T05:41:40;5.78;;;3.63;;
79005;SDS011;69202;45.498;-73.582;2023-12-07T05:44:07;6.10;;;4.00;;
79005;SDS011;69202;45.498;-73.582;2023-12-07T05:46:34;4.82;;;3.25;;
79005;SDS011;69202;45.498;-73.582;2023-12-07T05:49:01;6.40;;;4.20;;
79005;SDS011;69202;45.498;-73.582;2023-12-07T05:51:27;6.18;;;3.53;;
79005;SDS011;69202;45.498;-73.582;2023-12-07T05:53:53;5.72;;;3.92;;
79005;SDS011;69202;45.498;-73.582;2023-12-07T05:56:19;4.82;;;3.30;;
79005;SDS011;69202;45.498;-73.582;2023-12-07T05:58:45;5.32;;;3.10;;
79005;SDS011;69202;45.498;-73.582;2023-12-07T06:01:16;4.32;;;3.13;;
79005;SDS011;69202;45.498;-73.582;2023-12-07T06:03:42;5.25;;;3.00;;
79005;SDS011;69202;45.498;-73.582;2023-12-07T06:06:09;4.10;;;2.85;;
79005;SDS011;69202;45.498;-73.582;2023-12-07T06:08:37;6.45;;;3.60;;
79005;SDS011;69202;45.498;-73.582;2023-12-07T06:11:03;5.15;;;3.55;;
79005;SDS011;69202;45.498;-73.582;2023-12-07T06:13:29;3.83;;;2.95;;
79005;SDS011;69202;45.498;-73.582;2023-12-07T06:15:57;4.25;;;3.47;;
79005;SDS011;69202;45.498;-73.582;2023-12-07T06:18:22;4.57;;;3.00;;
79005;SDS011;69202;45.498;-73.582;2023-12-07T06:20:49;4.07;;;3.00;;
79005;SDS011;69202;45.498;-73.582;2023-12-07T06:23:15;3.97;;;2.70;;
79005;SDS011;69202;45.498;-73.582;2023-12-07T06:25:41;4.80;;;3.92;;
79005;SDS011;69202;45.498;-73.582;2023-12-07T06:28:07;4.53;;;3.40;;
79005;SDS011;69202;45.498;-73.582;2023-12-07T06:30:33;3.78;;;2.70;;
79005;SDS011;69202;45.498;-73.582;2023-12-07T06:33:00;4.78;;;2.78;;
79005;SDS011;69202;45.498;-73.582;2023-12-07T06:35:26;2.88;;;2.47;;
79005;SDS011;69202;45.498;-73.582;2023-12-07T06:37:52;4.25;;;2.95;;
79005;SDS011;69202;45.498;-73.582;2023-12-07T06:40:18;3.83;;;2.67;;
79005;SDS011;69202;45.498;-73.582;2023-12-07T06:42:45;3.83;;;2.40;;
79005;SDS011;69202;45.498;-73.582;2023-12-07T06:45:11;4.32;;;3.13;;
79005;SDS011;69202;45.498;-73.582;2023-12-07T06:47:42;5.40;;;3.50;;
79005;SDS011;69202;45.498;-73.582;2023-12-07T06:50:08;4.65;;;3.58;;
79005;SDS011;69202;45.498;-73.582;2023-12-07T06:52:38;6.13;;;4.00;;
79005;SDS011;69202;45.498;-73.582;2023-12-07T06:55:05;4.05;;;3.33;;
79005;SDS011;69202;45.498;-73.582;2023-12-07T06:57:31;3.10;;;2.33;;
79005;SDS011;69202;45.498;-73.582;2023-12-07T06:59:58;4.55;;;3.15;;
79005;SDS011;69202;45.498;-73.582;2023-12-07T07:02:26;4.20;;;3.15;;
79005;SDS011;69202;45.498;-73.582;2023-12-07T07:04:52;4.32;;;2.97;;
79005;SDS011;69202;45.498;-73.582;2023-12-07T07:07:18;4.38;;;2.95;;
79005;SDS011;69202;45.498;-73.582;2023-12-07T07:09:44;5.15;;;3.70;;
79005;SDS011;69202;45.498;-73.582;2023-12-07T07:12:10;5.10;;;3.55;;
79005;SDS011;69202;45.498;-73.582;2023-12-07T07:14:36;5.93;;;4.20;;
79005;SDS011;69202;45.498;-73.582;2023-12-07T07:17:02;4.80;;;3.47;;
79005;SDS011;69202;45.498;-73.582;2023-12-07T07:19:29;5.13;;;3.30;;
79005;SDS011;69202;45.498;-73.582;2023-12-07T07:21:55;4.50;;;3.28;;
79005;SDS011;69202;45.498;-73.582;2023-12-07T07:24:21;6.00;;;4.07;;
79005;SDS011;69202;45.498;-73.582;2023-12-07T07:26:48;4.53;;;3.55;;
79005;SDS011;69202;45.498;-73.582;2023-12-07T07:29:14;4.70;;;3.40;;
79005;SDS011;69202;45.498;-73.582;2023-12-07T07:31:40;6.68;;;3.80;;
79005;SDS011;69202;45.498;-73.582;2023-12-07T07:34:06;5.78;;;3.58;;
79005;SDS011;69202;45.498;-73.582;2023-12-07T07:36:33;5.03;;;3.40;;
79005;SDS011;69202;45.498;-73.582;2023-12-07T07:38:59;4.32;;;3.33;;
79005;SDS011;69202;45.498;-73.582;2023-12-07T07:41:24;5.28;;;3.80;;
79005;SDS011;69202;45.498;-73.582;2023-12-07T07:43:50;6.22;;;3.97;;
79005;SDS011;69202;45.498;-73.582;2023-12-07T07:46:16;4.85;;;3.72;;
79005;SDS011;69202;45.498;-73.582;2023-12-07T07:48:42;4.60;;;3.58;;
79005;SDS011;69202;45.498;-73.582;2023-12-07T07:51:08;5.97;;;3.20;;
79005;SDS011;69202;45.498;-73.582;2023-12-07T07:53:34;6.57;;;3.88;;
79005;SDS011;69202;45.498;-73.582;2023-12-07T07:56:00;4.70;;;3.47;;
79005;SDS011;69202;45.498;-73.582;2023-12-07T07:58:26;4.80;;;2.78;;
79005;SDS011;69202;45.498;-73.582;2023-12-07T08:00:51;4.50;;;2.95;;
79005;SDS011;69202;45.498;-73.582;2023-12-07T08:03:17;4.00;;;3.25;;
79005;SDS011;69202;45.498;-73.582;2023-12-07T08:05:43;4.82;;;3.03;;
79005;SDS011;69202;45.498;-73.582;2023-12-07T08:08:09;4.57;;;3.28;;
79005;SDS011;69202;45.498;-73.582;2023-12-07T08:10:35;3.90;;;3.00;;
79005;SDS011;69202;45.498;-73.582;2023-12-07T08:13:01;5.13;;;3.50;;
79005;SDS011;69202;45.498;-73.582;2023-12-07T08:15:27;4.40;;;3.17;;
79005;SDS011;69202;45.498;-73.582;2023-12-07T08:17:53;4.88;;;3.72;;
79005;SDS011;69202;45.498;-73.582;2023-12-07T08:20:20;3.50;;;2.65;;
79005;SDS011;69202;45.498;-73.582;2023-12-07T08:22:46;3.67;;;2.90;;
79005;SDS011;69202;45.498;-73.582;2023-12-07T08:25:12;6.07;;;4.10;;
79005;SDS011;69202;45.498;-73.582;2023-12-07T08:27:38;5.50;;;4.03;;
79005;SDS011;69202;45.498;-73.582;2023-12-07T08:30:05;6.20;;;4.28;;
79005;SDS011;69202;45.498;-73.582;2023-12-07T08:32:34;5.07;;;3.75;;
79005;SDS011;69202;45.498;-73.582;2023-12-07T08:35:01;5.45;;;4.00;;
79005;SDS011;69202;45.498;-73.582;2023-12-07T08:37:27;6.07;;;4.35;;
79005;SDS011;69202;45.498;-73.582;2023-12-07T08:39:54;4.57;;;3.65;;
79005;SDS011;69202;45.498;-73.582;2023-12-07T08:42:20;4.78;;;3.03;;
79005;SDS011;69202;45.498;-73.582;2023-12-07T08:44:45;5.18;;;3.45;;
79005;SDS011;69202;45.498;-73.582;2023-12-07T08:47:11;5.18;;;3.95;;
79005;SDS011;69202;45.498;-73.582;2023-12-07T08:49:37;6.32;;;4.03;;
79005;SDS011;69202;45.498;-73.582;2023-12-07T08:52:03;5.70;;;4.32;;
79005;SDS011;69202;45.498;-73.582;2023-12-07T08:54:31;6.05;;;4.10;;
79005;SDS011;69202;45.498;-73.582;2023-12-07T08:56:57;6.15;;;4.20;;
79005;SDS011;69202;45.498;-73.582;2023-12-07T08:59:23;4.25;;;2.95;;
79005;SDS011;69202;45.498;-73.582;2023-12-07T09:01:49;6.05;;;4.18;;
79005;SDS011;69202;45.498;-73.582;2023-12-07T09:04:15;5.57;;;4.10;;
79005;SDS011;69202;45.498;-73.582;2023-12-07T09:06:41;7.28;;;3.80;;
79005;SDS011;69202;45.498;-73.582;2023-12-07T09:09:07;6.68;;;4.13;;
79005;SDS011;69202;45.498;-73.582;2023-12-07T09:11:33;5.43;;;3.80;;
79005;SDS011;69202;45.498;-73.582;2023-12-07T09:13:59;6.20;;;3.88;;
79005;SDS011;69202;45.498;-73.582;2023-12-07T09:16:26;4.25;;;3.10;;
79005;SDS011;69202;45.498;-73.582;2023-12-07T09:18:51;5.43;;;3.90;;
79005;SDS011;69202;45.498;-73.582;2023-12-07T09:21:17;5.75;;;3.35;;
79005;SDS011;69202;45.498;-73.582;2023-12-07T09:23:43;5.40;;;3.50;;
79005;SDS011;69202;45.498;-73.582;2023-12-07T09:26:09;4.88;;;3.80;;
79005;SDS011;69202;45.498;-73.582;2023-12-07T09:28:35;6.40;;;4.13;;
79005;SDS011;69202;45.498;-73.582;2023-12-07T09:31:02;5.03;;;3.72;;
79005;SDS011;69202;45.498;-73.582;2023-12-07T09:33:28;5.55;;;3.80;;
79005;SDS011;69202;45.498;-73.582;2023-12-07T09:35:54;6.32;;;4.38;;
79005;SDS011;69202;45.498;-73.582;2023-12-07T09:38:19;7.05;;;4.63;;
79005;SDS011;69202;45.498;-73.582;2023-12-07T09:40:45;5.90;;;3.80;;
79005;SDS011;69202;45.498;-73.582;2023-12-07T09:43:12;7.05;;;4.38;;
79005;SDS011;69202;45.498;-73.582;2023-12-07T09:45:38;6.20;;;4.30;;
79005;SDS011;69202;45.498;-73.582;2023-12-07T09:48:05;7.22;;;4.57;;
79005;SDS011;69202;45.498;-73.582;2023-12-07T09:50:33;6.07;;;4.22;;
79005;SDS011;69202;45.498;-73.582;2023-12-07T09:52:59;6.43;;;4.53;;
79005;SDS011;69202;45.498;-73.582;2023-12-07T09:55:25;7.38;;;4.20;;
79005;SDS011;69202;45.498;-73.582;2023-12-07T09:57:51;5.85;;;3.67;;
79005;SDS011;69202;45.498;-73.582;2023-12-07T10:00:19;7.28;;;4.22;;
79005;SDS011;69202;45.498;-73.582;2023-12-07T10:02:46;5.82;;;4.10;;
79005;SDS011;69202;45.498;-73.582;2023-12-07T10:05:13;5.82;;;3.88;;
79005;SDS011;69202;45.498;-73.582;2023-12-07T10:07:42;7.25;;;4.25;;
79005;SDS011;69202;45.498;-73.582;2023-12-07T10:10:09;6.50;;;4.35;;
79005;SDS011;69202;45.498;-73.582;2023-12-07T10:15:18;5.65;;;3.95;;
79005;SDS011;69202;45.498;-73.582;2023-12-07T10:20:28;6.30;;;3.80;;
79005;SDS011;69202;45.498;-73.582;2023-12-07T10:23:05;6.97;;;4.72;;
79005;SDS011;69202;45.498;-73.582;2023-12-07T10:25:32;6.30;;;3.97;;
79005;SDS011;69202;45.498;-73.582;2023-12-07T10:28:09;6.97;;;4.18;;
79005;SDS011;69202;45.498;-73.582;2023-12-07T10:30:37;5.80;;;4.05;;
79005;SDS011;69202;45.498;-73.582;2023-12-07T10:33:11;6.38;;;4.72;;
79005;SDS011;69202;45.498;-73.582;2023-12-07T10:35:47;5.20;;;3.22;;
79005;SDS011;69202;45.498;-73.582;2023-12-07T10:38:17;4.93;;;3.40;;
79005;SDS011;69202;45.498;-73.582;2023-12-07T10:40:46;6.82;;;4.63;;
79005;SDS011;69202;45.498;-73.582;2023-12-07T10:43:12;5.50;;;2.90;;
79005;SDS011;69202;45.498;-73.582;2023-12-07T10:45:41;5.28;;;3.95;;
79005;SDS011;69202;45.498;-73.582;2023-12-07T10:48:09;5.70;;;3.90;;
79005;SDS011;69202;45.498;-73.582;2023-12-07T10:50:42;4.10;;;3.20;;
79005;SDS011;69202;45.498;-73.582;2023-12-07T10:53:44;4.97;;;3.47;;
79005;SDS011;69202;45.498;-73.582;2023-12-07T10:56:11;6.45;;;3.70;;
79005;SDS011;69202;45.498;-73.582;2023-12-07T10:58:50;5.40;;;3.40;;
79005;SDS011;69202;45.498;-73.582;2023-12-07T11:01:17;5.05;;;3.65;;
79005;SDS011;69202;45.498;-73.582;2023-12-07T11:03:45;5.35;;;3.85;;
79005;SDS011;69202;45.498;-73.582;2023-12-07T11:06:14;5.97;;;3.70;;
79005;SDS011;69202;45.498;-73.582;2023-12-07T11:08:50;5.43;;;4.00;;
79005;SDS011;69202;45.498;-73.582;2023-12-07T11:11:41;4.68;;;3.13;;
79005;SDS011;69202;45.498;-73.582;2023-12-07T11:14:11;6.43;;;4.72;;
79005;SDS011;69202;45.498;-73.582;2023-12-07T11:16:41;4.20;;;3.30;;
79005;SDS011;69202;45.498;-73.582;2023-12-07T11:22:06;5.90;;;3.88;;
79005;SDS011;69202;45.498;-73.582;2023-12-07T11:24:33;6.97;;;4.30;;
79005;SDS011;69202;45.498;-73.582;2023-12-07T11:27:01;6.65;;;4.65;;
79005;SDS011;69202;45.498;-73.582;2023-12-07T11:29:30;6.18;;;4.32;;
79005;SDS011;69202;45.498;-73.582;2023-12-07T11:32:00;6.25;;;3.75;;
79005;SDS011;69202;45.498;-73.582;2023-12-07T11:34:35;6.43;;;3.97;;
79005;SDS011;69202;45.498;-73.582;2023-12-07T11:37:09;4.57;;;3.70;;
79005;SDS011;69202;45.498;-73.582;2023-12-07T11:39:37;5.65;;;3.75;;
79005;SDS011;69202;45.498;-73.582;2023-12-07T11:42:07;7.57;;;4.22;;
79005;SDS011;69202;45.498;-73.582;2023-12-07T11:44:37;7.40;;;4.43;;
79005;SDS011;69202;45.498;-73.582;2023-12-07T11:47:05;6.25;;;4.03;;
79005;SDS011;69202;45.498;-73.582;2023-12-07T11:49:31;7.20;;;4.60;;
79005;SDS011;69202;45.498;-73.582;2023-12-07T11:51:58;6.18;;;4.18;;
79005;SDS011;69202;45.498;-73.582;2023-12-07T11:54:24;6.47;;;5.00;;
79005;SDS011;69202;45.498;-73.582;2023-12-07T11:56:52;7.68;;;4.72;;
79005;SDS011;69202;45.498;-73.582;2023-12-07T11:59:22;6.43;;;4.63;;
79005;SDS011;69202;45.498;-73.582;2023-12-07T12:01:51;7.15;;;5.07;;
79005;SDS011;69202;45.498;-73.582;2023-12-07T12:04:17;7.95;;;4.88;;
79005;SDS011;69202;45.498;-73.582;2023-12-07T12:06:43;6.97;;;4.80;;
79005;SDS011;69202;45.498;-73.582;2023-12-07T12:09:13;6.88;;;4.57;;
79005;SDS011;69202;45.498;-73.582;2023-12-07T12:11:48;6.93;;;4.80;;
79005;SDS011;69202;45.498;-73.582;2023-12-07T12:14:15;6.82;;;4.97;;
79005;SDS011;69202;45.498;-73.582;2023-12-07T12:16:45;7.15;;;4.85;;
79005;SDS011;69202;45.498;-73.582;2023-12-07T12:19:15;6.28;;;4.57;;
79005;SDS011;69202;45.498;-73.582;2023-12-07T12:21:41;7.75;;;5.28;;
79005;SDS011;69202;45.498;-73.582;2023-12-07T12:24:09;8.32;;;5.57;;
79005;SDS011;69202;45.498;-73.582;2023-12-07T12:26:40;7.53;;;5.20;;
79005;SDS011;69202;45.498;-73.582;2023-12-07T12:29:07;7.93;;;5.10;;
79005;SDS011;69202;45.498;-73.582;2023-12-07T12:31:34;8.85;;;5.80;;
79005;SDS011;69202;45.498;-73.582;2023-12-07T12:34:01;8.60;;;4.88;;
79005;SDS011;69202;45.498;-73.582;2023-12-07T12:36:27;8.20;;;5.22;;
79005;SDS011;69202;45.498;-73.582;2023-12-07T12:38:55;8.23;;;5.28;;
79005;SDS011;69202;45.498;-73.582;2023-12-07T12:41:23;7.88;;;5.20;;
79005;SDS011;69202;45.498;-73.582;2023-12-07T12:43:49;7.82;;;5.25;;
79005;SDS011;69202;45.498;-73.582;2023-12-07T12:46:17;7.43;;;5.22;;
79005;SDS011;69202;45.498;-73.582;2023-12-07T12:48:53;8.80;;;5.80;;
79005;SDS011;69202;45.498;-73.582;2023-12-07T12:51:20;9.15;;;5.47;;
79005;SDS011;69202;45.498;-73.582;2023-12-07T12:53:50;6.63;;;4.65;;
79005;SDS011;69202;45.498;-73.582;2023-12-07T12:56:18;9.38;;;5.00;;
79005;SDS011;69202;45.498;-73.582;2023-12-07T12:58:45;6.30;;;4.32;;
79005;SDS011;69202;45.498;-73.582;2023-12-07T13:01:11;8.25;;;5.53;;
79005;SDS011;69202;45.498;-73.582;2023-12-07T13:03:37;6.53;;;5.20;;
79005;SDS011;69202;45.498;-73.582;2023-12-07T13:06:04;10.05;;;5.43;;
79005;SDS011;69202;45.498;-73.582;2023-12-07T13:08:30;9.32;;;5.20;;
79005;SDS011;69202;45.498;-73.582;2023-12-07T13:10:58;7.75;;;5.00;;
79005;SDS011;69202;45.498;-73.582;2023-12-07T13:13:24;9.93;;;6.03;;
79005;SDS011;69202;45.498;-73.582;2023-12-07T13:15:50;9.35;;;5.85;;
79005;SDS011;69202;45.498;-73.582;2023-12-07T13:18:16;7.55;;;4.85;;
79005;SDS011;69202;45.498;-73.582;2023-12-07T13:20:43;9.13;;;5.95;;
79005;SDS011;69202;45.498;-73.582;2023-12-07T13:23:08;9.30;;;6.00;;
79005;SDS011;69202;45.498;-73.582;2023-12-07T13:25:34;10.30;;;6.57;;
79005;SDS011;69202;45.498;-73.582;2023-12-07T13:28:00;8.90;;;6.22;;
79005;SDS011;69202;45.498;-73.582;2023-12-07T13:30:26;8.35;;;6.47;;
79005;SDS011;69202;45.498;-73.582;2023-12-07T13:32:55;8.23;;;5.82;;
79005;SDS011;69202;45.498;-73.582;2023-12-07T13:35:20;10.07;;;6.30;;
79005;SDS011;69202;45.498;-73.582;2023-12-07T13:37:47;7.10;;;5.35;;
79005;SDS011;69202;45.498;-73.582;2023-12-07T13:40:13;12.23;;;6.93;;
79005;SDS011;69202;45.498;-73.582;2023-12-07T13:42:40;9.57;;;6.50;;
79005;SDS011;69202;45.498;-73.582;2023-12-07T13:45:06;10.50;;;6.90;;
79005;SDS011;69202;45.498;-73.582;2023-12-07T13:47:33;16.33;;;7.07;;
79005;SDS011;69202;45.498;-73.582;2023-12-07T13:50:02;10.50;;;6.55;;
79005;SDS011;69202;45.498;-73.582;2023-12-07T13:52:29;11.60;;;7.47;;
79005;SDS011;69202;45.498;-73.582;2023-12-07T13:54:55;10.27;;;7.47;;
79005;SDS011;69202;45.498;-73.582;2023-12-07T13:57:22;12.68;;;7.43;;
79005;SDS011;69202;45.498;-73.582;2023-12-07T13:59:52;10.63;;;7.45;;
79005;SDS011;69202;45.498;-73.582;2023-12-07T14:02:18;11.02;;;7.70;;
79005;SDS011;69202;45.498;-73.582;2023-12-07T14:04:48;12.35;;;7.72;;
79005;SDS011;69202;45.498;-73.582;2023-12-07T14:07:18;9.95;;;6.15;;
79005;SDS011;69202;45.498;-73.582;2023-12-07T14:09:49;14.32;;;8.10;;
79005;SDS011;69202;45.498;-73.582;2023-12-07T14:12:17;11.80;;;7.88;;
79005;SDS011;69202;45.498;-73.582;2023-12-07T14:14:44;13.35;;;8.25;;
79005;SDS011;69202;45.498;-73.582;2023-12-07T14:17:14;11.38;;;8.55;;
79005;SDS011;69202;45.498;-73.582;2023-12-07T14:19:44;10.75;;;7.93;;
79005;SDS011;69202;45.498;-73.582;2023-12-07T14:22:10;13.77;;;8.70;;
79005;SDS011;69202;45.498;-73.582;2023-12-07T14:24:35;12.60;;;8.50;;
79005;SDS011;69202;45.498;-73.582;2023-12-07T14:27:02;13.18;;;8.35;;
79005;SDS011;69202;45.498;-73.582;2023-12-07T14:29:32;12.85;;;8.55;;
79005;SDS011;69202;45.498;-73.582;2023-12-07T14:31:58;12.45;;;8.82;;